Airfield :
LOGIN :

Register | Disclaimer

   EN    FR    IT 

 










Legend :    VFR   Marginal VFR   IFR   Intensive IFR   Very Intensive IFR
Visi :
Ceiling :
>= 8 km
>= 3000ft
5 to 8 km
1000 to 3000 ft
1500m to 5 km
500 to 1000 ft
800 to 1500m
200 to 500 ft
< 800m
< 200 ft
Symbols :   Thunderstorms  Fog  Heavy snow  Heavy precipitations  Wind > 20 kt
SIGMETs :     Misc.  Thunderstorms  Icing  Turbulence  Mountain Waves  Volcanic Ashes






- Airport Elevation : 158 ft
- IATA code : QAR


EHDL - Deelen Airbase

CURRENT METAR :
  • 280725Z AUTO 09004KT 070V190 4200 BR FEW002 OVC092 02/02 Q1020 GRN RMK TS INFO NOT AVBL

EXPIRED METARs :
  • 280655Z AUTO 11005KT 040V200 3400 BR BKN001 BKN002 OVC091 02/02 Q1020 RED RMK TS INFO NOT AVBL
  • 280625Z AUTO VRB03KT 2700 BR BKN001 BKN003 OVC091 02/01 Q1019 RED RMK TS INFO NOT AVBL
  • 280555Z AUTO VRB04KT 2600 BR SCT001 OVC092 02/02 Q1019 RED RMK TS INFO NOT AVBL
  • 280525Z AUTO 08004KT 020V130 0900 FG OVC001 02/02 Q1019 RED
  • 280455Z AUTO 09004KT 050V220 0450 FG OVC000 02/02 Q1019 RED

Expired Forecast.



MET'MAP, your aeronautical weather chart ! - Copyright ORBIFLY December 2007 - Disclaimer

ORBIFLY MET'MAP TEAM :

Programming & Development : Alexandra Zaïnal
Concept & original design : Baudouin d'Aumeries
Assistance for programming : Marc-Olivier Méhu
Technical & hardware support : Manuel Goepfert

Contact : metmap@orbifly.com




SOURCES & CREDITS :

   NOAA